Lansdowne House, Canada
Current Conditions -  °F | °C
As of 9:00 PM on Wednesday 17 Dec 2014 (Local Time) from CYLH Reporting Station
Clear Clear  
Wind Chill: -28°   Ceiling: Unl
Heat Index: -20°   Visibility: 9mi
Dew Point: -21°   Wind: 7mph
Humidity: 92%   Direction: 250°WSW
Pressure: 30.31"   Gusts: NA
Location:  52.21°N, 87.89°W
Report Text: CYLH 180200Z AUTO 25006KT 9SM CLR M20/M21 A3031 RMK SLP298
Loading
Personal Weather Stations






























Interactive Weather Map New forecast layout! Learn more

10-Day Weather Forecast

Advertisements
Track Severe Weather on mobile